createdAt,value
2017-04-10T00:00:51.408Z,101067.25
2017-04-10T00:01:49.297Z,101067.27
2017-04-10T00:02:47.220Z,101063.84
2017-04-10T00:03:45.632Z,101063.85
2017-04-10T00:04:43.453Z,101058.23
2017-04-10T00:05:41.947Z,101058.73
2017-04-10T00:06:45.127Z,101057.97
2017-04-10T00:07:43.128Z,101063.31
2017-04-10T00:08:41.003Z,101059.75
2017-04-10T00:09:39.231Z,101056.33
2017-04-10T00:10:37.076Z,101061.20
2017-04-10T00:11:35.028Z,101057.70
2017-04-10T00:12:32.847Z,101057.32
2017-04-10T00:13:30.793Z,101054.13
2017-04-10T00:14:28.724Z,101062.22
2017-04-10T00:15:26.615Z,101056.50
2017-04-10T00:16:24.499Z,101056.14
2017-04-10T00:17:22.445Z,101054.57
2017-04-10T00:18:20.296Z,101054.71
2017-04-10T00:19:18.119Z,101051.09
2017-04-10T00:20:16.151Z,101053.41
2017-04-10T00:21:14.158Z,101049.25
2017-04-10T00:22:12.063Z,101051.02
2017-04-10T00:23:09.920Z,101037.02
2017-04-10T00:24:07.737Z,101044.72
2017-04-10T00:25:05.583Z,101041.75
2017-04-10T00:26:03.473Z,101047.59
2017-04-10T00:27:01.437Z,101036.59
2017-04-10T00:27:59.301Z,101033.84
2017-04-10T00:28:57.128Z,101039.23
2017-04-10T00:29:54.980Z,101040.46
2017-04-10T00:30:52.831Z,101042.81
2017-04-10T00:31:50.719Z,101041.64
2017-04-10T00:32:48.556Z,101046.28
2017-04-10T00:33:46.408Z,101036.44
2017-04-10T00:34:44.233Z,101036.59
2017-04-10T00:35:42.238Z,101041.22
2017-04-10T00:36:40.164Z,101036.47
2017-04-10T00:37:37.962Z,101038.77
2017-04-10T00:38:35.866Z,101040.98
2017-04-10T00:39:33.675Z,101040.05
2017-04-10T00:40:31.689Z,101037.83
2017-04-10T00:41:29.503Z,101032.71
2017-04-10T00:42:27.544Z,101031.71
2017-04-10T00:43:25.354Z,101032.73
2017-04-10T00:44:23.156Z,101032.17
2017-04-10T00:45:21.003Z,101038.75
2017-04-10T00:46:18.812Z,101030.64
2017-04-10T00:47:16.819Z,101030.52
2017-04-10T00:48:14.627Z,101028.80
2017-04-10T00:49:12.700Z,101037.14
2017-04-10T00:50:10.539Z,101035.54
2017-04-10T00:51:08.366Z,101036.94
2017-04-10T00:52:06.177Z,101039.86
2017-04-10T00:53:04.084Z,101033.83
2017-04-10T00:54:02.064Z,101039.23
2017-04-10T00:54:59.877Z,101037.05
2017-04-10T00:55:57.787Z,101034.48
2017-04-10T00:56:55.613Z,101037.50
2017-04-10T00:57:53.435Z,101030.22
2017-04-10T00:58:51.607Z,101027.61
2017-04-10T00:59:49.481Z,101030.07
2017-04-10T01:00:47.387Z,101029.22
2017-04-10T01:01:45.239Z,101022.89
2017-04-10T01:02:43.104Z,101021.88
2017-04-10T01:03:40.957Z,101027.33
2017-04-10T01:04:38.769Z,101020.68
2017-04-10T01:05:36.715Z,101020.00
2017-04-10T01:06:34.576Z,101013.30
2017-04-10T01:07:32.480Z,101011.69
2017-04-10T01:08:30.381Z,101016.23
2017-04-10T01:09:28.193Z,101013.42
2017-04-10T01:10:26.046Z,101016.37
2017-04-10T01:11:23.912Z,101012.63
2017-04-10T01:12:21.801Z,101014.27
2017-04-10T01:13:19.691Z,101013.07
2017-04-10T01:14:17.560Z,101010.91
2017-04-10T01:15:15.392Z,101007.61
2017-04-10T01:16:13.444Z,101004.26
2017-04-10T01:17:11.278Z,101010.90
2017-04-10T01:18:09.185Z,101004.66
2017-04-10T01:19:07.062Z,101005.20
2017-04-10T01:20:04.944Z,100996.06
2017-04-10T01:21:02.796Z,100998.95
2017-04-10T01:22:00.612Z,100997.78
2017-04-10T01:22:58.519Z,101000.09
2017-04-10T01:23:56.392Z,100999.47
2017-04-10T01:24:54.254Z,100997.25
2017-04-10T01:25:52.167Z,100992.16
2017-04-10T01:26:49.991Z,100995.91
2017-04-10T01:27:47.963Z,100996.66
2017-04-10T01:28:45.892Z,100996.58
2017-04-10T01:29:43.760Z,100996.98
2017-04-10T01:30:41.586Z,100992.52
2017-04-10T01:31:39.482Z,100987.67
2017-04-10T01:32:37.345Z,100990.27
2017-04-10T01:33:35.159Z,100990.62
2017-04-10T01:34:33.428Z,100989.94
2017-04-10T01:35:31.262Z,100981.55
2017-04-10T01:36:29.156Z,100986.09
2017-04-10T01:37:26.967Z,100983.94
2017-04-10T01:38:24.811Z,100984.24
2017-04-10T01:39:22.700Z,100979.67
2017-04-10T01:40:20.523Z,100979.91
2017-04-10T01:41:18.651Z,100986.73
2017-04-10T01:42:16.578Z,100981.56
2017-04-10T01:43:14.447Z,100982.24
2017-04-10T01:44:12.260Z,100981.98
2017-04-10T01:45:10.106Z,100981.06
2017-04-10T01:46:07.932Z,100982.45
2017-04-10T01:47:05.823Z,100979.91
2017-04-10T01:48:03.765Z,100976.51
2017-04-10T01:49:01.568Z,100976.72
2017-04-10T01:49:59.409Z,100974.89
2017-04-10T01:50:57.319Z,100977.41
2017-04-10T01:51:55.116Z,100975.87
2017-04-10T01:52:53.048Z,100972.33
2017-04-10T01:53:50.843Z,100975.36
2017-04-10T01:54:48.693Z,100977.25
2017-04-10T01:55:46.519Z,100967.59
2017-04-10T01:56:44.568Z,100970.00
2017-04-10T01:57:42.413Z,100974.59
2017-04-10T01:58:40.236Z,100973.70
2017-04-10T01:59:38.088Z,100968.84
2017-04-10T02:00:35.976Z,100970.75
2017-04-10T02:01:33.956Z,100966.81
2017-04-10T02:02:32.084Z,100957.31
2017-04-10T02:03:29.968Z,100957.75
2017-04-10T02:04:27.753Z,100956.66
2017-04-10T02:05:25.608Z,100951.31
2017-04-10T02:06:23.448Z,100956.23
2017-04-10T02:07:21.272Z,100956.03
2017-04-10T02:08:19.140Z,100954.59
2017-04-10T02:09:17.011Z,100954.23
2017-04-10T02:10:14.864Z,100958.70
2017-04-10T02:11:12.714Z,100959.41
2017-04-10T02:12:10.552Z,100957.50
2017-04-10T02:13:08.444Z,100961.12
2017-04-10T02:14:06.294Z,100957.98
2017-04-10T02:15:04.297Z,100949.22
2017-04-10T02:16:02.104Z,100960.84
2017-04-10T02:17:00.060Z,100956.98
2017-04-10T02:17:57.896Z,100955.83
2017-04-10T02:18:55.748Z,100952.63
2017-04-10T02:19:53.608Z,100950.98
2017-04-10T02:20:52.191Z,100943.36
2017-04-10T02:21:50.140Z,100943.01
2017-04-10T02:22:48.019Z,100939.47
2017-04-10T02:23:45.916Z,100945.03
2017-04-10T02:24:43.822Z,100943.38
2017-04-10T02:25:41.742Z,100942.37
2017-04-10T02:26:39.667Z,100946.98
2017-04-10T02:27:37.469Z,100948.02
2017-04-10T02:28:35.378Z,100954.65
2017-04-10T02:29:33.264Z,100955.59
2017-04-10T02:30:31.099Z,100941.59
2017-04-10T02:31:29.085Z,100947.70
2017-04-10T02:32:26.933Z,100949.36
2017-04-10T02:33:24.931Z,100949.58
2017-04-10T02:34:22.768Z,100944.61
2017-04-10T02:35:20.668Z,100935.46
2017-04-10T02:36:18.493Z,100937.95
2017-04-10T02:37:16.348Z,100933.41
2017-04-10T02:38:14.336Z,100932.34
2017-04-10T02:39:12.204Z,100931.87
2017-04-10T02:40:10.145Z,100928.91
2017-04-10T02:41:07.988Z,100925.38
2017-04-10T02:42:05.928Z,100924.99
2017-04-10T02:43:03.775Z,100927.73
2017-04-10T02:44:01.634Z,100919.73
2017-04-10T02:44:59.568Z,100921.87
2017-04-10T02:45:57.362Z,100920.91
2017-04-10T02:46:55.332Z,100919.41
2017-04-10T02:47:53.124Z,100924.41
2017-04-10T02:48:51.095Z,100924.67
2017-04-10T02:49:48.944Z,100917.23
2017-04-10T02:50:46.747Z,100926.25
2017-04-10T02:51:44.723Z,100928.76
2017-04-10T02:52:42.576Z,100933.58
2017-04-10T02:53:40.552Z,100940.66
2017-04-10T02:54:38.384Z,100932.82
2017-04-10T02:55:36.324Z,100929.55
2017-04-10T02:56:34.159Z,100930.00
2017-04-10T02:57:31.996Z,100920.11
2017-04-10T02:58:29.909Z,100924.92
2017-04-10T02:59:27.730Z,100921.55
2017-04-10T03:00:25.941Z,100917.38
2017-04-10T03:01:23.757Z,100917.83
2017-04-10T03:02:21.640Z,100915.73
2017-04-10T03:03:19.509Z,100920.48
2017-04-10T03:04:17.305Z,100914.02
2017-04-10T03:05:15.099Z,100919.84
2017-04-10T03:06:12.955Z,100918.06
2017-04-10T03:07:10.928Z,100921.23
2017-04-10T03:08:08.760Z,100917.39
2017-04-10T03:09:06.726Z,100919.95
2017-04-10T03:10:04.583Z,100921.16
2017-04-10T03:11:02.379Z,100921.66
2017-04-10T03:12:00.319Z,100917.00
2017-04-10T03:12:58.125Z,100915.97
2017-04-10T03:13:56.112Z,100927.17
2017-04-10T03:14:54.028Z,100918.28
2017-04-10T03:15:51.810Z,100917.05
2017-04-10T03:16:49.771Z,100909.98
2017-04-10T03:17:47.619Z,100918.81
2017-04-10T03:18:45.511Z,100912.66
2017-04-10T03:19:43.327Z,100920.38
2017-04-10T03:20:41.363Z,100915.20
2017-04-10T03:21:39.173Z,100915.61
2017-04-10T03:22:37.120Z,100922.89
2017-04-10T03:23:35.028Z,100926.46
2017-04-10T03:24:32.847Z,100917.25
2017-04-10T03:25:30.751Z,100914.63
2017-04-10T03:26:28.547Z,100918.01
2017-04-10T03:27:26.564Z,100925.66
2017-04-10T03:28:24.404Z,100922.56
2017-04-10T03:29:22.232Z,100919.53
2017-04-10T03:30:20.148Z,100918.44
2017-04-10T03:31:17.968Z,100921.97
2017-04-10T03:32:16.139Z,100919.77
2017-04-10T03:33:13.949Z,100915.88
2017-04-10T03:34:11.814Z,100917.98
2017-04-10T03:35:09.709Z,100914.27
2017-04-10T03:36:07.639Z,100925.64
2017-04-10T03:37:05.490Z,100924.53
2017-04-10T03:38:03.393Z,100927.52
2017-04-10T03:39:01.236Z,100927.16
2017-04-10T03:39:59.193Z,100921.87
2017-04-10T03:40:57.061Z,100928.63
2017-04-10T03:41:54.937Z,100926.02
2017-04-10T03:42:52.769Z,100926.05
2017-04-10T03:43:50.642Z,100922.71
2017-04-10T03:44:48.474Z,100919.40
2017-04-10T03:45:46.438Z,100927.94
2017-04-10T03:46:44.244Z,100926.93
2017-04-10T03:47:42.300Z,100931.56
2017-04-10T03:48:40.171Z,100921.55
2017-04-10T03:49:37.968Z,100916.31
2017-04-10T03:50:35.888Z,100916.16
2017-04-10T03:51:33.696Z,100906.80
2017-04-10T03:52:31.619Z,100902.73
2017-04-10T03:53:29.452Z,100897.80
2017-04-10T03:54:27.464Z,100897.66
2017-04-10T03:55:25.274Z,100898.47
2017-04-10T03:56:23.147Z,100901.79
2017-04-10T03:57:20.999Z,100907.95
2017-04-10T03:58:18.889Z,100911.57
2017-04-10T03:59:16.792Z,100913.18
2017-04-10T04:00:14.620Z,100905.59
2017-04-10T04:01:12.567Z,100918.92
2017-04-10T04:02:10.384Z,100912.31
2017-04-10T04:03:08.371Z,100917.99
2017-04-10T04:04:06.240Z,100915.52
2017-04-10T04:05:04.085Z,100904.36
2017-04-10T04:06:02.021Z,100915.23
2017-04-10T04:06:59.854Z,100908.39
2017-04-10T04:07:57.771Z,100905.00
2017-04-10T04:08:55.578Z,100919.32
2017-04-10T04:09:53.807Z,100918.37
2017-04-10T04:10:51.667Z,100900.63
2017-04-10T04:11:49.461Z,100904.42
2017-04-10T04:12:47.320Z,100910.17
2017-04-10T04:13:45.132Z,100907.03
2017-04-10T04:14:42.912Z,100911.09
2017-04-10T04:15:40.755Z,100913.28
2017-04-10T04:16:38.719Z,100906.09
2017-04-10T04:17:36.575Z,100908.28
2017-04-10T04:18:34.392Z,100913.34
2017-04-10T04:19:32.461Z,100916.94
2017-04-10T04:20:31.260Z,100916.43
2017-04-10T04:21:29.142Z,100921.61
2017-04-10T04:22:26.978Z,100922.74
2017-04-10T04:23:24.836Z,100929.63
2017-04-10T04:24:22.663Z,100926.38
2017-04-10T04:25:20.507Z,100925.90
2017-04-10T04:26:18.359Z,100923.57
2017-04-10T04:27:16.152Z,100919.43
2017-04-10T04:28:14.152Z,100923.05
2017-04-10T04:29:11.984Z,100921.84
2017-04-10T04:30:09.857Z,100922.30
2017-04-10T04:31:07.742Z,100915.98
2017-04-10T04:32:05.576Z,100915.61
2017-04-10T04:33:03.468Z,100916.45
2017-04-10T04:34:01.332Z,100911.83
2017-04-10T04:34:59.451Z,100913.19
2017-04-10T04:35:57.259Z,100915.05
2017-04-10T04:36:55.195Z,100915.75
2017-04-10T04:37:53.047Z,100919.94
2017-04-10T04:38:50.940Z,100919.64
2017-04-10T04:39:48.839Z,100927.64
2017-04-10T04:40:46.722Z,100932.40
2017-04-10T04:41:44.593Z,100932.88
2017-04-10T04:42:42.440Z,100934.27
2017-04-10T04:43:40.248Z,100928.83
2017-04-10T04:44:38.245Z,100928.70
2017-04-10T04:45:36.081Z,100931.14
2017-04-10T04:46:33.980Z,100937.40
2017-04-10T04:47:31.990Z,100939.23
2017-04-10T04:48:29.847Z,100936.27
2017-04-10T04:49:27.660Z,100940.31
2017-04-10T04:50:25.560Z,100939.45
2017-04-10T04:51:23.412Z,100941.57
2017-04-10T04:52:21.229Z,100942.22
2017-04-10T04:53:19.217Z,100941.00
2017-04-10T04:54:17.067Z,100945.02
2017-04-10T04:55:15.052Z,100939.50
2017-04-10T04:56:12.894Z,100947.17
2017-04-10T04:57:10.751Z,100947.02
2017-04-10T04:58:08.635Z,100950.46
2017-04-10T04:59:06.495Z,100947.42
2017-04-10T05:00:04.484Z,100950.28
2017-04-10T05:01:02.313Z,100953.46
2017-04-10T05:02:00.281Z,100954.33
2017-04-10T05:02:58.097Z,100963.78
2017-04-10T05:03:55.901Z,100970.47
2017-04-10T05:04:53.840Z,100964.64
2017-04-10T05:05:51.645Z,100965.25
2017-04-10T05:06:49.727Z,100966.92
2017-04-10T05:07:47.554Z,100967.38
2017-04-10T05:08:45.466Z,100969.39
2017-04-10T05:09:43.300Z,100974.88
2017-04-10T05:10:41.157Z,100975.11
2017-04-10T05:11:39.059Z,100979.16
2017-04-10T05:12:36.879Z,100981.64
2017-04-10T05:13:34.872Z,100976.14
2017-04-10T05:14:32.723Z,100975.08
2017-04-10T05:15:30.656Z,100975.63
2017-04-10T05:16:28.498Z,100981.95
2017-04-10T05:17:26.340Z,100985.01
2017-04-10T05:18:24.239Z,100979.31
2017-04-10T05:19:22.064Z,100989.24
2017-04-10T05:20:20.049Z,100983.89
2017-04-10T05:21:17.925Z,100983.39
2017-04-10T05:22:15.837Z,100993.50
2017-04-10T05:23:13.663Z,100990.97
2017-04-10T05:24:11.506Z,100997.77
2017-04-10T05:25:09.472Z,101000.98
2017-04-10T05:26:07.472Z,100997.56
2017-04-10T05:27:05.345Z,101003.71
2017-04-10T05:28:03.180Z,100994.19
2017-04-10T05:29:01.126Z,100995.92
2017-04-10T05:29:58.949Z,101003.20
2017-04-10T05:30:56.910Z,101002.28
2017-04-10T05:31:54.795Z,101003.75
2017-04-10T05:32:52.716Z,101015.20
2017-04-10T05:33:50.613Z,101009.08
2017-04-10T05:34:48.446Z,101010.91
2017-04-10T05:35:46.317Z,101001.53
2017-04-10T05:36:44.238Z,101016.23
2017-04-10T05:37:42.068Z,101024.67
2017-04-10T05:38:39.991Z,101016.58
2017-04-10T05:39:37.815Z,101016.27
2017-04-10T05:40:35.704Z,101018.20
2017-04-10T05:41:33.589Z,101010.94
2017-04-10T05:42:31.471Z,101015.66
2017-04-10T05:43:29.389Z,101019.06
2017-04-10T05:44:27.275Z,101025.19
2017-04-10T05:45:25.164Z,101027.27
2017-04-10T05:46:23.001Z,101033.53
2017-04-10T05:47:20.943Z,101033.95
2017-04-10T05:48:18.842Z,101035.55
2017-04-10T05:49:16.667Z,101045.78
2017-04-10T05:50:14.530Z,101044.56
2017-04-10T05:51:12.433Z,101048.73
2017-04-10T05:52:10.447Z,101045.34
2017-04-10T05:53:08.271Z,101049.78
2017-04-10T05:54:06.149Z,101047.47
2017-04-10T05:55:04.211Z,101049.69
2017-04-10T05:56:02.152Z,101051.56
2017-04-10T05:57:00.008Z,101051.48
2017-04-10T05:57:57.852Z,101054.58
2017-04-10T05:58:55.738Z,101052.83
2017-04-10T05:59:53.691Z,101053.58
2017-04-10T06:00:51.528Z,101059.36
2017-04-10T06:01:49.395Z,101064.11
2017-04-10T06:02:47.276Z,101062.70
2017-04-10T06:03:45.182Z,101060.86
2017-04-10T06:04:43.023Z,101062.47
2017-04-10T06:05:40.888Z,101068.15
2017-04-10T06:06:38.768Z,101068.70
2017-04-10T06:07:36.597Z,101068.75
2017-04-10T06:08:35.725Z,101070.13
2017-04-10T06:09:33.560Z,101071.22
2017-04-10T06:10:31.576Z,101069.75
2017-04-10T06:11:29.447Z,101070.47
2017-04-10T06:12:27.426Z,101076.80
2017-04-10T06:13:25.293Z,101073.29
2017-04-10T06:14:23.181Z,101077.47
2017-04-10T06:15:21.238Z,101081.45
2017-04-10T06:16:19.068Z,101077.79
2017-04-10T06:17:16.916Z,101082.02
2017-04-10T06:18:14.731Z,101068.79
2017-04-10T06:19:12.718Z,101071.00
2017-04-10T06:20:10.621Z,101079.22
2017-04-10T06:21:08.461Z,101082.81
2017-04-10T06:22:06.305Z,101082.09
2017-04-10T06:23:04.169Z,101078.80
2017-04-10T06:24:02.109Z,101079.67
2017-04-10T06:24:59.940Z,101080.79
2017-04-10T06:25:57.886Z,101089.35
2017-04-10T06:26:55.739Z,101096.01
2017-04-10T06:27:53.547Z,101093.03
2017-04-10T06:28:51.503Z,101100.34
2017-04-10T06:29:49.357Z,101104.44
2017-04-10T06:30:47.229Z,101107.50
2017-04-10T06:31:45.076Z,101114.47
2017-04-10T06:32:43.032Z,101114.61
2017-04-10T06:33:40.929Z,101103.39
2017-04-10T06:34:38.773Z,101102.24
2017-04-10T06:35:36.631Z,101104.05
2017-04-10T06:36:34.569Z,101110.42
2017-04-10T06:37:33.235Z,101107.98
2017-04-10T06:38:31.116Z,101119.39
2017-04-10T06:39:28.999Z,101121.12
2017-04-10T06:40:26.864Z,101109.72
2017-04-10T06:41:24.756Z,101107.34
2017-04-10T06:42:22.618Z,101104.94
2017-04-10T06:43:20.501Z,101103.25
2017-04-10T06:44:18.397Z,101112.16
2017-04-10T06:45:16.329Z,101106.77
2017-04-10T06:46:14.184Z,101119.56
2017-04-10T06:47:12.041Z,101122.17
2017-04-10T06:48:09.856Z,101125.81
2017-04-10T06:49:07.748Z,101123.62
2017-04-10T06:50:05.739Z,101125.69
2017-04-10T06:51:03.639Z,101117.39
2017-04-10T06:52:01.516Z,101127.39
2017-04-10T06:52:59.391Z,101123.30
2017-04-10T06:53:57.221Z,101121.95
2017-04-10T06:54:55.071Z,101121.55
2017-04-10T06:55:52.930Z,101124.87
2017-04-10T06:56:50.807Z,101132.55
2017-04-10T06:57:48.733Z,101144.55
2017-04-10T06:58:46.555Z,101144.31
2017-04-10T06:59:44.506Z,101139.53
2017-04-10T07:00:42.451Z,101135.36
2017-04-10T07:01:40.377Z,101134.22
2017-04-10T07:02:38.336Z,101147.81
2017-04-10T07:03:36.198Z,101149.28
2017-04-10T07:04:34.023Z,101149.83
2017-04-10T07:05:31.849Z,101161.49
2017-04-10T07:06:29.664Z,101163.53
2017-04-10T07:07:27.563Z,101162.17
2017-04-10T07:08:25.452Z,101166.39
2017-04-10T07:09:23.483Z,101166.73
2017-04-10T07:10:21.329Z,101169.95
2017-04-10T07:11:19.545Z,101177.59
2017-04-10T07:12:17.393Z,101173.16
2017-04-10T07:13:15.220Z,101171.27
2017-04-10T07:14:13.068Z,101173.57
2017-04-10T07:15:10.920Z,101167.05
2017-04-10T07:16:08.777Z,101178.87
2017-04-10T07:17:06.647Z,101179.82
2017-04-10T07:18:04.523Z,101183.31
2017-04-10T07:19:02.348Z,101180.76
2017-04-10T07:20:00.166Z,101181.20
2017-04-10T07:20:58.002Z,101185.52
2017-04-10T07:21:55.978Z,101178.23
2017-04-10T07:22:53.862Z,101181.77
2017-04-10T07:23:51.720Z,101183.15
2017-04-10T07:24:49.601Z,101181.86
2017-04-10T07:25:47.444Z,101186.39
2017-04-10T07:26:45.360Z,101195.58
2017-04-10T07:27:43.273Z,101194.80
2017-04-10T07:28:41.141Z,101201.43
2017-04-10T07:29:39.119Z,101201.45
2017-04-10T07:30:37.048Z,101209.42
2017-04-10T07:31:34.909Z,101210.94
2017-04-10T07:32:32.765Z,101211.89
2017-04-10T07:33:30.656Z,101217.00
2017-04-10T07:34:28.512Z,101212.84
2017-04-10T07:35:26.387Z,101215.80
2017-04-10T07:36:24.332Z,101220.42
2017-04-10T07:37:22.171Z,101215.58
2017-04-10T07:38:20.136Z,101214.32
2017-04-10T07:39:17.979Z,101218.48
2017-04-10T07:40:15.981Z,101213.19
2017-04-10T07:41:13.784Z,101211.09
2017-04-10T07:42:11.651Z,101224.34
2017-04-10T07:43:09.523Z,101219.95
2017-04-10T07:44:07.411Z,101221.58
2017-04-10T07:45:05.375Z,101220.66
2017-04-10T07:46:03.260Z,101227.13
2017-04-10T07:47:01.107Z,101219.42
2017-04-10T07:47:58.963Z,101220.52
2017-04-10T07:48:56.816Z,101220.89
2017-04-10T07:49:54.852Z,101226.27
2017-04-10T07:50:52.738Z,101228.52
2017-04-10T07:51:50.637Z,101224.43
2017-04-10T07:52:48.500Z,101222.05
2017-04-10T07:53:46.352Z,101227.52
2017-04-10T07:54:44.154Z,101221.26
2017-04-10T07:55:41.994Z,101220.52
2017-04-10T07:56:39.936Z,101221.44
2017-04-10T07:57:37.846Z,101218.41
2017-04-10T07:58:35.724Z,101227.61
2017-04-10T07:59:33.584Z,101226.87
2017-04-10T08:00:31.441Z,101227.27
2017-04-10T08:01:29.393Z,101220.33
2017-04-10T08:02:27.227Z,101224.63
2017-04-10T08:03:25.074Z,101226.59
2017-04-10T08:04:22.911Z,101221.77
2017-04-10T08:05:20.837Z,101223.01
2017-04-10T08:06:18.782Z,101232.27
2017-04-10T08:07:16.838Z,101230.26
2017-04-10T08:08:15.000Z,101224.98
2017-04-10T08:09:12.825Z,101231.13
2017-04-10T08:10:10.699Z,101222.48
2017-04-10T08:11:08.514Z,101230.77
2017-04-10T08:12:06.332Z,101232.75
2017-04-10T08:13:04.244Z,101230.27
2017-04-10T08:14:02.075Z,101231.36
2017-04-10T08:14:59.919Z,101234.64
2017-04-10T08:15:57.768Z,101235.26
2017-04-10T08:16:55.613Z,101237.05
2017-04-10T08:17:53.509Z,101234.09
2017-04-10T08:18:51.315Z,101244.32
2017-04-10T08:19:49.208Z,101234.16
2017-04-10T08:20:47.064Z,101225.06
2017-04-10T08:21:44.930Z,101224.63
2017-04-10T08:22:42.779Z,101237.56
2017-04-10T08:23:40.637Z,101236.23
2017-04-10T08:24:38.452Z,101236.28
2017-04-10T08:25:36.407Z,101238.34
2017-04-10T08:26:34.268Z,101237.11
2017-04-10T08:27:32.160Z,101242.66
2017-04-10T08:28:30.007Z,101247.77
2017-04-10T08:29:27.838Z,101260.63
2017-04-10T08:30:25.780Z,101255.64
2017-04-10T08:31:23.625Z,101255.52
2017-04-10T08:32:21.609Z,101254.99
2017-04-10T08:33:19.432Z,101255.38
2017-04-10T08:34:17.341Z,101259.88
2017-04-10T08:35:15.225Z,101260.48
2017-04-10T08:36:13.046Z,101260.48
2017-04-10T08:37:10.957Z,101263.23
2017-04-10T08:38:08.749Z,101260.52
2017-04-10T08:39:06.638Z,101257.94
2017-04-10T08:40:04.517Z,101264.48
2017-04-10T08:41:02.404Z,101269.33
2017-04-10T08:42:00.253Z,101268.13
2017-04-10T08:42:58.093Z,101278.44
2017-04-10T08:43:55.929Z,101271.02
2017-04-10T08:44:53.769Z,101275.05
2017-04-10T08:45:51.647Z,101275.64
2017-04-10T08:46:49.439Z,101278.88
2017-04-10T08:47:47.291Z,101272.52
2017-04-10T08:48:45.128Z,101282.46
2017-04-10T08:49:42.948Z,101285.30
2017-04-10T08:50:40.773Z,101282.27
2017-04-10T08:51:38.658Z,101279.75
2017-04-10T08:52:36.484Z,101285.12
2017-04-10T08:53:34.369Z,101282.46
2017-04-10T08:54:32.257Z,101287.31
2017-04-10T08:55:30.096Z,101282.20
2017-04-10T08:56:28.056Z,101290.20
2017-04-10T08:57:25.884Z,101305.63
2017-04-10T08:58:23.695Z,101299.08
2017-04-10T08:59:21.605Z,101299.23
2017-04-10T09:00:19.460Z,101298.91
2017-04-10T09:01:17.360Z,101301.86
2017-04-10T09:02:15.209Z,101301.82
2017-04-10T09:03:13.156Z,101303.28
2017-04-10T09:04:11.046Z,101309.14
2017-04-10T09:05:08.897Z,101307.39
2017-04-10T09:06:06.867Z,101310.41
2017-04-10T09:07:04.730Z,101307.11
2017-04-10T09:08:02.617Z,101313.96
2017-04-10T09:09:00.480Z,101316.06
2017-04-10T09:09:58.437Z,101315.84
2017-04-10T09:10:56.283Z,101315.22
2017-04-10T09:11:54.113Z,101318.78
2017-04-10T09:12:52.015Z,101314.67
2017-04-10T09:13:49.864Z,101319.28
2017-04-10T09:14:47.828Z,101314.51
2017-04-10T09:15:45.677Z,101319.48
2017-04-10T09:16:43.664Z,101319.60
2017-04-10T09:17:41.514Z,101313.41
2017-04-10T09:18:39.441Z,101316.77
2017-04-10T09:19:37.275Z,101318.42
2017-04-10T09:20:35.133Z,101315.83
2017-04-10T09:21:32.996Z,101319.37
2017-04-10T09:22:30.889Z,101319.00
2017-04-10T09:23:28.712Z,101316.77
2017-04-10T09:24:26.577Z,101314.47
2017-04-10T09:25:24.404Z,101310.61
2017-04-10T09:26:22.368Z,101319.52
2017-04-10T09:27:20.219Z,101329.73
2017-04-10T09:28:18.165Z,101321.23
2017-04-10T09:29:15.989Z,101324.31
2017-04-10T09:30:13.923Z,101318.02
2017-04-10T09:31:11.785Z,101325.16
2017-04-10T09:32:09.609Z,101329.20
2017-04-10T09:33:07.545Z,101332.84
2017-04-10T09:34:05.409Z,101328.91
2017-04-10T09:35:03.313Z,101338.36
2017-04-10T09:36:01.145Z,101334.41
2017-04-10T09:36:59.144Z,101335.25
2017-04-10T09:37:56.983Z,101332.53
2017-04-10T09:38:54.845Z,101343.53
2017-04-10T09:39:52.725Z,101338.48
2017-04-10T09:40:50.570Z,101335.91
2017-04-10T09:41:48.507Z,101337.98
2017-04-10T09:42:46.377Z,101340.20
2017-04-10T09:43:44.316Z,101346.10
2017-04-10T09:44:42.160Z,101343.20
2017-04-10T09:45:39.989Z,101345.08
2017-04-10T09:46:37.965Z,101342.55
2017-04-10T09:47:35.816Z,101340.95
2017-04-10T09:48:33.676Z,101347.01
2017-04-10T09:49:31.533Z,101341.91
2017-04-10T09:50:29.459Z,101341.67
2017-04-10T09:51:27.349Z,101344.83
2017-04-10T09:52:25.224Z,101342.72
2017-04-10T09:53:23.639Z,101347.50
2017-04-10T09:54:21.568Z,101345.72
2017-04-10T09:55:19.462Z,101346.36
2017-04-10T09:56:17.286Z,101353.70
2017-04-10T09:57:15.099Z,101347.56
2017-04-10T09:58:12.959Z,101346.94
2017-04-10T09:59:10.921Z,101345.03
2017-04-10T10:00:08.956Z,101344.18
2017-04-10T10:01:06.808Z,101348.95
2017-04-10T10:02:04.617Z,101348.11
2017-04-10T10:03:02.536Z,101345.74
2017-04-10T10:04:00.364Z,101344.36
2017-04-10T10:04:58.204Z,101334.34
2017-04-10T10:05:56.131Z,101341.41
2017-04-10T10:06:53.948Z,101336.58
2017-04-10T10:07:51.767Z,101343.52
2017-04-10T10:08:49.612Z,101336.68
2017-04-10T10:09:47.489Z,101340.48
2017-04-10T10:10:45.316Z,101340.02
2017-04-10T10:11:43.201Z,101341.05
2017-04-10T10:12:41.031Z,101345.66
2017-04-10T10:13:38.891Z,101340.42
2017-04-10T10:14:36.775Z,101344.61
2017-04-10T10:15:34.653Z,101349.53
2017-04-10T10:16:32.502Z,101348.47
2017-04-10T10:17:30.421Z,101343.64
2017-04-10T10:18:28.251Z,101353.05
2017-04-10T10:19:26.091Z,101346.58
2017-04-10T10:20:24.051Z,101351.55
2017-04-10T10:21:21.917Z,101356.08
2017-04-10T10:22:19.780Z,101350.42
2017-04-10T10:23:17.594Z,101356.59
2017-04-10T10:24:15.449Z,101357.56
2017-04-10T10:25:13.306Z,101357.52
2017-04-10T10:26:11.167Z,101359.30
2017-04-10T10:27:09.022Z,101360.99
2017-04-10T10:28:06.859Z,101353.61
2017-04-10T10:29:04.720Z,101356.58
2017-04-10T10:30:02.599Z,101355.95
2017-04-10T10:31:00.439Z,101361.67
2017-04-10T10:31:58.336Z,101359.95
2017-04-10T10:32:56.219Z,101357.40
2017-04-10T10:33:54.042Z,101349.45
2017-04-10T10:34:51.912Z,101355.70
2017-04-10T10:35:49.737Z,101357.91
2017-04-10T10:36:47.600Z,101357.42
2017-04-10T10:37:45.482Z,101359.02
2017-04-10T10:38:43.345Z,101355.48
2017-04-10T10:39:41.316Z,101355.27
2017-04-10T10:40:39.203Z,101356.47
2017-04-10T10:41:37.045Z,101354.63
2017-04-10T10:42:34.891Z,101351.71
2017-04-10T10:43:32.725Z,101350.02
2017-04-10T10:44:30.692Z,101351.31
2017-04-10T10:45:28.519Z,101349.83
2017-04-10T10:46:26.454Z,101345.09
2017-04-10T10:47:24.329Z,101345.66
2017-04-10T10:48:22.273Z,101346.33
2017-04-10T10:49:20.143Z,101338.10
2017-04-10T10:50:17.999Z,101336.60
2017-04-10T10:51:15.952Z,101330.77
2017-04-10T10:52:13.826Z,101338.34
2017-04-10T10:53:11.737Z,101328.55
2017-04-10T10:54:09.627Z,101333.71
2017-04-10T10:55:07.513Z,101335.47
2017-04-10T10:56:05.364Z,101336.77
2017-04-10T10:57:03.220Z,101344.92
2017-04-10T10:58:01.154Z,101337.05
2017-04-10T10:58:58.993Z,101339.35
2017-04-10T10:59:56.908Z,101340.94
2017-04-10T11:00:54.727Z,101333.52